createdAt,value
2023-04-30T00:01:54.253Z,40.98
2023-04-30T00:04:28.561Z,40.96
2023-04-30T00:06:59.994Z,41.08
2023-04-30T00:09:31.401Z,41.11
2023-04-30T00:12:03.114Z,41.23
2023-04-30T00:14:34.503Z,41.19
2023-04-30T00:17:05.911Z,41.29
2023-04-30T00:19:37.287Z,41.29
2023-04-30T00:22:08.872Z,41.35
2023-04-30T00:24:40.228Z,41.41
2023-04-30T00:27:11.617Z,41.44
2023-04-30T00:29:43.167Z,41.42
2023-04-30T00:32:14.595Z,41.43
2023-04-30T00:34:46.221Z,41.65
2023-04-30T00:37:17.760Z,42.03
2023-04-30T00:39:49.251Z,42.27
2023-04-30T00:42:20.614Z,42.20
2023-04-30T00:44:52.004Z,42.19
2023-04-30T00:47:23.721Z,42.34
2023-04-30T00:49:55.541Z,42.51
2023-04-30T00:52:28.301Z,42.72
2023-04-30T00:55:00.045Z,42.67
2023-04-30T00:57:32.922Z,42.43
2023-04-30T01:00:05.155Z,42.34
2023-04-30T01:02:37.014Z,42.16
2023-04-30T01:05:09.421Z,42.02
2023-04-30T01:07:44.583Z,41.94
2023-04-30T01:10:17.116Z,41.85
2023-04-30T01:12:51.867Z,41.83
2023-04-30T01:15:25.695Z,41.85
2023-04-30T01:17:59.720Z,41.86
2023-04-30T01:20:32.429Z,41.83
2023-04-30T01:23:06.561Z,41.85
2023-04-30T01:25:39.985Z,41.88
2023-04-30T01:28:12.798Z,41.99
2023-04-30T01:30:45.636Z,42.04
2023-04-30T01:33:17.197Z,42.21
2023-04-30T01:35:53.567Z,42.47
2023-04-30T01:38:28.514Z,42.40
2023-04-30T01:41:01.295Z,42.31
2023-04-30T01:43:35.058Z,42.35
2023-04-30T01:46:08.703Z,42.39
2023-04-30T01:48:42.872Z,42.41
2023-04-30T01:51:16.670Z,42.45
2023-04-30T01:53:48.569Z,42.42
2023-04-30T01:56:23.804Z,42.36
2023-04-30T01:58:55.948Z,42.45
2023-04-30T02:01:31.727Z,42.41
2023-04-30T02:04:03.942Z,42.36
2023-04-30T02:06:35.385Z,42.42
2023-04-30T02:09:07.654Z,42.40
2023-04-30T02:11:39.191Z,42.40
2023-04-30T02:14:10.684Z,42.35
2023-04-30T02:16:43.876Z,42.36
2023-04-30T02:19:15.441Z,42.36
2023-04-30T02:21:46.902Z,42.37
2023-04-30T02:24:18.251Z,42.35
2023-04-30T02:26:49.603Z,42.38
2023-04-30T02:29:20.976Z,42.42
2023-04-30T02:31:52.369Z,42.48
2023-04-30T02:34:24.086Z,42.51
2023-04-30T02:36:55.824Z,42.51
2023-04-30T02:39:27.575Z,42.52
2023-04-30T02:41:59.096Z,42.63
2023-04-30T02:44:30.849Z,42.68
2023-04-30T02:47:02.625Z,42.69
2023-04-30T02:49:34.647Z,42.73
2023-04-30T02:52:07.328Z,42.75
2023-04-30T02:54:38.708Z,42.79
2023-04-30T02:57:10.024Z,42.79
2023-04-30T02:59:42.965Z,42.81
2023-04-30T03:02:14.409Z,42.83
2023-04-30T03:04:46.424Z,42.82
2023-04-30T03:07:19.551Z,42.81
2023-04-30T03:09:51.098Z,42.82
2023-04-30T03:12:22.809Z,42.86
2023-04-30T03:14:54.202Z,42.91
2023-04-30T03:17:25.880Z,42.93
2023-04-30T03:19:57.667Z,43.02
2023-04-30T03:22:30.499Z,43.02
2023-04-30T03:25:01.969Z,43.04
2023-04-30T03:27:33.709Z,43.05
2023-04-30T03:30:06.266Z,43.05
2023-04-30T03:32:38.929Z,43.09
2023-04-30T03:35:11.919Z,43.06
2023-04-30T03:37:43.247Z,43.10
2023-04-30T03:40:16.231Z,43.13
2023-04-30T03:42:48.891Z,43.18
2023-04-30T03:45:20.776Z,43.14
2023-04-30T03:47:52.707Z,43.22
2023-04-30T03:50:24.233Z,43.18
2023-04-30T03:52:55.561Z,43.27
2023-04-30T03:55:27.066Z,43.29
2023-04-30T03:57:58.644Z,43.39
2023-04-30T04:00:31.371Z,43.49
2023-04-30T04:03:03.678Z,43.45
2023-04-30T04:05:35.729Z,43.46
2023-04-30T04:08:07.758Z,43.47
2023-04-30T04:10:39.952Z,43.46
2023-04-30T04:13:11.694Z,43.39
2023-04-30T04:15:43.196Z,43.46
2023-04-30T04:18:15.222Z,43.45
2023-04-30T04:20:46.609Z,43.51
2023-04-30T04:23:18.017Z,43.50
2023-04-30T04:25:53.274Z,43.63
2023-04-30T04:28:25.941Z,43.61
2023-04-30T04:30:57.493Z,43.58
2023-04-30T04:33:29.194Z,43.61
2023-04-30T04:36:00.801Z,43.60
2023-04-30T04:38:32.491Z,43.64
2023-04-30T04:41:05.022Z,43.66
2023-04-30T04:43:37.194Z,43.69
2023-04-30T04:46:13.755Z,43.70
2023-04-30T04:48:44.350Z,43.75
2023-04-30T04:51:15.739Z,43.76
2023-04-30T04:53:47.250Z,43.77
2023-04-30T04:56:18.627Z,43.80
2023-04-30T04:58:50.062Z,43.75
2023-04-30T05:01:21.552Z,43.60
2023-04-30T05:03:54.381Z,43.58
2023-04-30T05:06:25.957Z,43.75
2023-04-30T05:08:57.611Z,43.58
2023-04-30T05:11:31.950Z,43.47
2023-04-30T05:14:03.291Z,43.39
2023-04-30T05:16:34.927Z,43.50
2023-04-30T05:19:07.271Z,43.92
2023-04-30T05:21:40.245Z,43.82
2023-04-30T05:24:11.613Z,44.04
2023-04-30T05:26:42.992Z,44.42
2023-04-30T05:29:14.452Z,45.15
2023-04-30T05:31:45.927Z,45.15
2023-04-30T05:34:17.623Z,44.93
2023-04-30T05:36:48.955Z,44.52
2023-04-30T05:39:20.611Z,44.18
2023-04-30T05:41:54.249Z,44.02
2023-04-30T05:44:25.723Z,44.09
2023-04-30T05:46:57.379Z,44.01
2023-04-30T05:49:28.901Z,43.85
2023-04-30T05:52:00.280Z,43.88
2023-04-30T05:54:32.435Z,43.74
2023-04-30T05:57:04.409Z,43.77
2023-04-30T05:59:36.540Z,43.54
2023-04-30T06:02:08.305Z,43.35
2023-04-30T06:04:39.824Z,43.08
2023-04-30T06:07:11.162Z,43.20
2023-04-30T06:09:42.672Z,43.09
2023-04-30T06:12:14.450Z,42.91
2023-04-30T06:14:48.099Z,42.54
2023-04-30T06:17:19.845Z,42.60
2023-04-30T06:19:51.466Z,42.58
2023-04-30T06:22:23.005Z,42.52
2023-04-30T06:24:54.556Z,42.41
2023-04-30T06:27:27.940Z,42.02
2023-04-30T06:30:01.139Z,42.04
2023-04-30T06:32:33.456Z,41.96
2023-04-30T06:35:06.325Z,40.84
2023-04-30T06:37:38.222Z,40.51
2023-04-30T06:40:10.689Z,39.43
2023-04-30T06:42:42.292Z,40.08
2023-04-30T06:45:15.446Z,40.04
2023-04-30T06:47:47.392Z,39.76
2023-04-30T06:50:19.093Z,38.94
2023-04-30T06:52:50.774Z,38.05
2023-04-30T06:55:23.290Z,36.88
2023-04-30T06:57:56.207Z,34.33
2023-04-30T07:00:27.741Z,35.38
2023-04-30T07:03:00.909Z,35.04
2023-04-30T07:05:32.451Z,34.87
2023-04-30T07:08:04.282Z,34.59
2023-04-30T07:10:35.823Z,34.56
2023-04-30T07:13:07.727Z,33.76
2023-04-30T07:15:39.122Z,32.86
2023-04-30T07:18:11.146Z,33.24
2023-04-30T07:20:42.662Z,33.80
2023-04-30T07:23:14.073Z,32.54
2023-04-30T07:25:45.549Z,32.58
2023-04-30T07:28:18.333Z,31.60
2023-04-30T07:30:49.877Z,30.71
2023-04-30T07:33:22.418Z,28.88
2023-04-30T07:35:54.616Z,29.65
2023-04-30T07:38:26.071Z,29.07
2023-04-30T07:40:58.339Z,29.74
2023-04-30T07:43:31.920Z,29.81
2023-04-30T07:46:04.528Z,31.06
2023-04-30T07:48:35.955Z,31.86
2023-04-30T07:51:07.360Z,30.43
2023-04-30T07:53:39.332Z,29.89
2023-04-30T07:56:10.779Z,31.86
2023-04-30T07:58:42.810Z,31.60
2023-04-30T08:01:16.736Z,32.65
2023-04-30T08:03:48.351Z,32.42
2023-04-30T08:06:20.685Z,32.52
2023-04-30T08:08:52.752Z,32.66
2023-04-30T08:11:24.188Z,32.88
2023-04-30T08:13:55.787Z,32.91
2023-04-30T08:16:27.613Z,32.51
2023-04-30T08:18:59.462Z,32.50
2023-04-30T08:21:31.754Z,32.61
2023-04-30T08:24:03.358Z,32.68
2023-04-30T08:26:34.964Z,33.20
2023-04-30T08:29:07.969Z,33.54
2023-04-30T08:31:39.309Z,33.69
2023-04-30T08:34:12.639Z,32.47
2023-04-30T08:36:44.264Z,33.43
2023-04-30T08:39:15.670Z,33.48
2023-04-30T08:41:48.313Z,34.14
2023-04-30T08:44:21.116Z,34.39
2023-04-30T08:46:55.069Z,34.48
2023-04-30T08:49:28.404Z,34.56
2023-04-30T08:52:00.233Z,34.35
2023-04-30T08:54:33.193Z,33.90
2023-04-30T08:57:06.305Z,34.00
2023-04-30T08:59:37.940Z,34.09
2023-04-30T09:02:10.749Z,34.35
2023-04-30T09:04:45.541Z,34.22
2023-04-30T09:07:22.390Z,34.31
2023-04-30T09:09:55.307Z,34.67
2023-04-30T09:12:27.274Z,34.38
2023-04-30T09:15:03.869Z,34.57
2023-04-30T09:17:36.689Z,34.66
2023-04-30T09:20:12.903Z,34.93
2023-04-30T09:22:47.078Z,34.25
2023-04-30T09:25:18.691Z,34.69
2023-04-30T09:27:50.473Z,35.06
2023-04-30T09:30:33.922Z,35.03
2023-04-30T09:33:11.883Z,35.15
2023-04-30T09:35:45.409Z,35.19
2023-04-30T09:38:30.164Z,35.12
2023-04-30T09:41:02.245Z,35.19
2023-04-30T09:43:38.021Z,35.26
2023-04-30T09:46:18.128Z,35.25
2023-04-30T09:48:53.810Z,35.13
2023-04-30T09:51:33.586Z,35.18
2023-04-30T09:54:07.037Z,34.65
2023-04-30T09:56:41.501Z,34.83
2023-04-30T09:59:15.919Z,34.74
2023-04-30T10:01:53.599Z,34.73
2023-04-30T10:04:29.610Z,35.11
2023-04-30T10:07:25.856Z,35.10
2023-04-30T10:10:10.253Z,35.19
2023-04-30T10:12:50.746Z,35.12
2023-04-30T10:15:32.917Z,34.84
2023-04-30T10:18:06.786Z,34.84
2023-04-30T10:20:40.439Z,34.85
2023-04-30T10:23:15.585Z,34.22
2023-04-30T10:26:00.043Z,34.36
2023-04-30T10:28:40.204Z,34.43
2023-04-30T10:31:22.596Z,33.83
2023-04-30T10:34:01.131Z,34.62
2023-04-30T10:36:37.278Z,34.60
2023-04-30T10:39:17.208Z,35.10
2023-04-30T10:41:53.016Z,35.26
2023-04-30T10:44:32.689Z,35.10
2023-04-30T10:47:11.887Z,35.00
2023-04-30T10:49:49.447Z,35.24
2023-04-30T10:52:40.570Z,35.34
2023-04-30T10:56:03.890Z,34.88
2023-04-30T10:58:41.236Z,35.01
2023-04-30T11:01:14.950Z,35.34
2023-04-30T11:03:49.521Z,35.41
2023-04-30T11:06:24.756Z,34.96
2023-04-30T11:09:36.962Z,35.11
2023-04-30T11:15:19.241Z,34.93
2023-04-30T11:18:03.814Z,34.54
2023-04-30T11:20:52.309Z,34.98
2023-04-30T11:23:40.523Z,34.97
2023-04-30T11:26:16.676Z,34.36
2023-04-30T11:29:22.630Z,34.43
2023-04-30T11:34:58.128Z,34.39
2023-04-30T11:37:47.119Z,34.24
2023-04-30T11:40:28.367Z,33.74
2023-04-30T11:43:11.958Z,33.19
2023-04-30T11:45:54.860Z,33.53
2023-04-30T11:48:32.828Z,33.38
2023-04-30T11:51:07.497Z,33.34
2023-04-30T11:53:49.179Z,33.83
2023-04-30T11:56:24.475Z,33.56
2023-04-30T11:59:08.225Z,33.71
2023-04-30T12:01:43.783Z,33.95
2023-04-30T12:04:15.902Z,33.95
2023-04-30T12:06:48.012Z,33.85
2023-04-30T12:09:22.833Z,33.68
2023-04-30T12:11:56.181Z,33.55
2023-04-30T12:14:44.176Z,33.73
2023-04-30T12:17:17.377Z,33.75
2023-04-30T12:19:49.124Z,33.74
2023-04-30T12:22:26.064Z,33.45
2023-04-30T12:24:59.804Z,33.36
2023-04-30T12:27:40.792Z,32.90
2023-04-30T12:30:13.450Z,32.73
2023-04-30T12:32:45.591Z,32.87
2023-04-30T12:35:18.361Z,32.42
2023-04-30T12:37:51.430Z,32.52
2023-04-30T12:40:26.430Z,33.09
2023-04-30T12:43:03.045Z,33.88
2023-04-30T12:45:48.616Z,34.37
2023-04-30T12:48:21.226Z,34.45
2023-04-30T12:50:56.732Z,34.72
2023-04-30T12:53:28.592Z,35.03
2023-04-30T12:56:10.439Z,35.26
2023-04-30T12:58:47.617Z,34.98
2023-04-30T13:01:20.770Z,35.38
2023-04-30T13:03:54.148Z,35.60
2023-04-30T13:06:29.305Z,35.54
2023-04-30T13:09:00.833Z,35.47
2023-04-30T13:11:32.428Z,35.47
2023-04-30T13:14:09.602Z,35.65
2023-04-30T13:16:41.501Z,35.88
2023-04-30T13:19:13.312Z,35.96
2023-04-30T13:21:44.888Z,36.05
2023-04-30T13:24:18.162Z,36.10
2023-04-30T13:26:49.621Z,36.03
2023-04-30T13:29:21.819Z,36.09
2023-04-30T13:31:54.609Z,36.15
2023-04-30T13:34:26.795Z,36.06
2023-04-30T13:37:00.033Z,36.20
2023-04-30T13:39:31.622Z,36.28
2023-04-30T13:42:04.823Z,36.38
2023-04-30T13:44:36.971Z,36.42
2023-04-30T13:47:10.489Z,36.57
2023-04-30T13:49:42.283Z,36.61
2023-04-30T13:52:15.741Z,36.66
2023-04-30T13:54:47.330Z,36.67
2023-04-30T13:57:18.913Z,36.69
2023-04-30T13:59:50.709Z,36.79
2023-04-30T14:02:22.450Z,36.85
2023-04-30T14:05:05.282Z,36.88
2023-04-30T14:07:27.615Z,36.95
2023-04-30T14:09:59.291Z,37.02
2023-04-30T14:12:31.718Z,36.99
2023-04-30T14:15:03.714Z,37.01
2023-04-30T14:17:35.986Z,37.07
2023-04-30T14:20:08.856Z,37.07
2023-04-30T14:22:40.356Z,37.20
2023-04-30T14:25:12.984Z,37.26
2023-04-30T14:27:44.559Z,37.34
2023-04-30T14:30:16.101Z,37.39
2023-04-30T14:32:47.661Z,37.51
2023-04-30T14:35:19.517Z,37.47
2023-04-30T14:37:51.088Z,37.45
2023-04-30T14:40:22.917Z,37.48
2023-04-30T14:42:54.555Z,37.51
2023-04-30T14:45:27.977Z,37.51
2023-04-30T14:47:59.652Z,37.51
2023-04-30T14:50:31.649Z,37.59
2023-04-30T14:53:03.179Z,37.71
2023-04-30T14:55:36.990Z,37.76
2023-04-30T14:58:08.635Z,37.73
2023-04-30T15:00:40.155Z,37.74
2023-04-30T15:03:11.947Z,37.76
2023-04-30T15:05:43.885Z,37.72
2023-04-30T15:08:16.606Z,37.75
2023-04-30T15:10:48.201Z,37.76
2023-04-30T15:13:19.777Z,37.83
2023-04-30T15:15:51.507Z,37.98
2023-04-30T15:18:23.078Z,38.08
2023-04-30T15:20:54.724Z,38.09
2023-04-30T15:23:27.171Z,38.10
2023-04-30T15:26:00.696Z,38.14
2023-04-30T15:28:32.929Z,38.21
2023-04-30T15:31:06.552Z,38.27
2023-04-30T15:33:40.318Z,38.31
2023-04-30T15:36:12.232Z,38.42
2023-04-30T15:38:43.843Z,38.57
2023-04-30T15:41:15.451Z,38.62
2023-04-30T15:43:47.310Z,38.58
2023-04-30T15:46:19.339Z,38.62
2023-04-30T15:48:50.800Z,38.66
2023-04-30T15:51:22.541Z,38.71
2023-04-30T15:53:54.155Z,38.75
2023-04-30T15:56:33.352Z,38.86
2023-04-30T15:59:03.107Z,39.00
2023-04-30T16:01:34.870Z,39.01
2023-04-30T16:04:07.081Z,38.97
2023-04-30T16:06:39.144Z,39.18
2023-04-30T16:09:12.051Z,39.51
2023-04-30T16:11:43.715Z,39.54
2023-04-30T16:14:15.360Z,39.49
2023-04-30T16:16:47.012Z,39.56
2023-04-30T16:19:18.564Z,39.60
2023-04-30T16:21:54.575Z,39.75
2023-04-30T16:24:26.291Z,40.02
2023-04-30T16:26:57.978Z,40.14
2023-04-30T16:29:29.638Z,40.31
2023-04-30T16:32:01.289Z,40.65
2023-04-30T16:34:32.866Z,40.85
2023-04-30T16:37:04.763Z,41.14
2023-04-30T16:39:37.897Z,42.79
2023-04-30T16:42:09.890Z,42.94
2023-04-30T16:44:41.629Z,43.18
2023-04-30T16:47:13.308Z,43.23
2023-04-30T16:49:44.843Z,43.38
2023-04-30T16:52:18.209Z,43.51
2023-04-30T16:54:49.799Z,43.43
2023-04-30T16:57:21.627Z,44.42
2023-04-30T16:59:53.346Z,44.60
2023-04-30T17:02:25.502Z,44.56
2023-04-30T17:04:57.740Z,44.56
2023-04-30T17:07:29.635Z,44.54
2023-04-30T17:10:01.743Z,44.88
2023-04-30T17:12:36.148Z,44.93
2023-04-30T17:15:08.808Z,45.31
2023-04-30T17:17:40.476Z,45.89
2023-04-30T17:20:13.218Z,46.00
2023-04-30T17:22:44.845Z,45.72
2023-04-30T17:25:16.942Z,45.81
2023-04-30T17:27:50.464Z,45.89
2023-04-30T17:30:22.256Z,45.89
2023-04-30T17:32:53.875Z,45.66
2023-04-30T17:35:26.925Z,45.56
2023-04-30T17:37:59.527Z,45.54
2023-04-30T17:40:34.411Z,45.41
2023-04-30T17:43:09.125Z,45.22
2023-04-30T17:45:44.530Z,45.19
2023-04-30T17:48:16.603Z,45.28
2023-04-30T17:50:48.276Z,45.40
2023-04-30T17:53:19.768Z,45.50
2023-04-30T17:55:51.769Z,45.45
2023-04-30T17:58:24.177Z,45.61
2023-04-30T18:01:00.062Z,45.63
2023-04-30T18:03:32.802Z,45.99
2023-04-30T18:06:05.112Z,46.74
2023-04-30T18:08:36.860Z,47.28
2023-04-30T18:11:08.723Z,47.73
2023-04-30T18:13:40.437Z,47.92
2023-04-30T18:16:13.515Z,48.35
2023-04-30T18:18:47.878Z,48.44
2023-04-30T18:21:19.942Z,48.41
2023-04-30T18:23:51.570Z,48.38
2023-04-30T18:26:24.329Z,48.31
2023-04-30T18:28:57.007Z,48.39
2023-04-30T18:31:29.118Z,48.55
2023-04-30T18:34:00.653Z,48.76
2023-04-30T18:36:33.669Z,48.80
2023-04-30T18:39:11.227Z,49.04
2023-04-30T18:41:46.317Z,49.40
2023-04-30T18:44:28.994Z,49.26
2023-04-30T18:47:00.645Z,49.20
2023-04-30T18:49:32.303Z,49.16
2023-04-30T18:52:07.659Z,49.26
2023-04-30T18:54:58.270Z,49.48
2023-04-30T18:57:41.977Z,49.59
2023-04-30T19:00:18.093Z,49.80
2023-04-30T19:02:56.595Z,49.86
2023-04-30T19:05:30.064Z,49.87
2023-04-30T19:08:09.076Z,50.06
2023-04-30T19:10:56.292Z,50.01
2023-04-30T19:13:36.461Z,50.12
2023-04-30T19:16:08.448Z,50.23
2023-04-30T19:18:44.286Z,50.41
2023-04-30T19:21:16.072Z,50.68
2023-04-30T19:23:49.164Z,50.80
2023-04-30T19:26:28.121Z,50.82
2023-04-30T19:29:00.207Z,50.91
2023-04-30T19:31:37.215Z,50.94
2023-04-30T19:34:13.067Z,51.02
2023-04-30T19:36:55.490Z,51.15
2023-04-30T19:39:34.720Z,51.39
2023-04-30T19:42:08.911Z,51.61
2023-04-30T19:44:51.624Z,51.67
2023-04-30T19:47:42.742Z,51.89
2023-04-30T19:50:17.348Z,52.02
2023-04-30T19:52:54.836Z,52.22
2023-04-30T19:55:28.064Z,52.48
2023-04-30T19:57:59.786Z,52.87
2023-04-30T20:00:44.102Z,53.13
2023-04-30T20:03:18.468Z,53.57
2023-04-30T20:05:56.890Z,53.75
2023-04-30T20:08:35.837Z,53.74
2023-04-30T20:11:07.791Z,53.75
2023-04-30T20:13:44.576Z,53.67
2023-04-30T20:16:18.143Z,53.61
2023-04-30T20:18:56.138Z,53.73
2023-04-30T20:21:32.231Z,53.77
2023-04-30T20:24:11.228Z,53.67
2023-04-30T20:26:45.148Z,53.68
2023-04-30T20:29:18.742Z,53.76
2023-04-30T20:31:59.599Z,53.77
2023-04-30T20:34:38.592Z,53.98
2023-04-30T20:37:23.704Z,54.07
2023-04-30T20:39:57.407Z,54.11
2023-04-30T20:42:29.367Z,54.18
2023-04-30T20:45:05.753Z,54.27
2023-04-30T20:47:39.982Z,54.37
2023-04-30T20:50:24.245Z,54.71
2023-04-30T20:52:57.604Z,55.35
2023-04-30T20:55:30.714Z,56.28
2023-04-30T20:58:05.117Z,56.21
2023-04-30T21:00:40.115Z,56.23
2023-04-30T21:03:16.051Z,56.12
2023-04-30T21:05:48.742Z,55.99
2023-04-30T21:08:20.331Z,55.87
2023-04-30T21:10:52.589Z,55.69
2023-04-30T21:13:28.777Z,55.56
2023-04-30T21:16:00.564Z,55.40
2023-04-30T21:18:36.871Z,55.39
2023-04-30T21:21:09.929Z,55.45
2023-04-30T21:23:50.564Z,55.76
2023-04-30T21:26:34.901Z,56.40
2023-04-30T21:29:14.745Z,56.53
2023-04-30T21:31:46.629Z,56.58
2023-04-30T21:34:18.473Z,56.49
2023-04-30T21:36:50.522Z,56.39
2023-04-30T21:39:22.130Z,56.43
2023-04-30T21:41:53.874Z,56.39
2023-04-30T21:44:25.481Z,56.32
2023-04-30T21:47:00.179Z,56.25
2023-04-30T21:49:32.588Z,56.12
2023-04-30T21:52:06.195Z,56.08
2023-04-30T21:54:40.557Z,56.09
2023-04-30T21:57:12.113Z,56.09
2023-04-30T21:59:45.150Z,56.11
2023-04-30T22:02:23.744Z,56.04
2023-04-30T22:04:51.439Z,56.00
2023-04-30T22:07:23.314Z,56.09
2023-04-30T22:09:55.106Z,56.13
2023-04-30T22:12:26.908Z,56.13
2023-04-30T22:14:58.353Z,56.38
2023-04-30T22:17:31.055Z,56.52
2023-04-30T22:20:02.561Z,56.60
2023-04-30T22:22:34.025Z,56.64
2023-04-30T22:25:05.973Z,56.54
2023-04-30T22:27:37.490Z,56.45
2023-04-30T22:30:11.960Z,56.35
2023-04-30T22:32:43.438Z,56.49
2023-04-30T22:35:16.925Z,56.60
2023-04-30T22:37:49.601Z,56.60
2023-04-30T22:40:21.055Z,56.60
2023-04-30T22:42:52.655Z,56.56
2023-04-30T22:45:24.170Z,56.63
2023-04-30T22:47:55.819Z,56.63
2023-04-30T22:50:27.599Z,56.71
2023-04-30T22:52:59.506Z,56.67
2023-04-30T22:55:32.937Z,56.71
2023-04-30T22:58:04.376Z,56.76
2023-04-30T23:00:38.220Z,56.84
2023-04-30T23:03:09.808Z,56.95
2023-04-30T23:05:41.277Z,57.00
2023-04-30T23:08:12.656Z,57.07
2023-04-30T23:10:45.842Z,57.02
2023-04-30T23:13:18.420Z,57.04
2023-04-30T23:15:50.107Z,57.19
2023-04-30T23:24:36.239Z,57.37
2023-04-30T23:27:09.145Z,57.35
2023-04-30T23:29:40.591Z,57.45
2023-04-30T23:32:12.020Z,57.59
2023-04-30T23:34:43.510Z,57.68
2023-04-30T23:37:17.917Z,57.63
2023-04-30T23:39:54.435Z,57.59
2023-04-30T23:42:27.703Z,57.62
2023-04-30T23:44:59.283Z,57.71
2023-04-30T23:47:32.618Z,57.75
2023-04-30T23:50:04.825Z,57.76
2023-04-30T23:52:37.013Z,57.84
2023-04-30T23:55:09.847Z,57.86
2023-04-30T23:57:42.462Z,57.95
